createdAt,value
2023-03-30T00:07:47.966Z,41.09
2023-03-30T00:17:50.329Z,41.28
2023-03-30T00:27:52.029Z,41.21
2023-03-30T00:37:53.580Z,41.14
2023-03-30T00:48:09.609Z,41.31
2023-03-30T00:58:11.105Z,41.19
2023-03-30T01:08:13.794Z,41.32
2023-03-30T01:18:24.618Z,41.13
2023-03-30T01:28:50.216Z,41.27
2023-03-30T01:39:19.889Z,41.26
2023-03-30T01:49:31.715Z,41.23
2023-03-30T01:59:57.785Z,41.13
2023-03-30T02:10:01.704Z,41.34
2023-03-30T02:20:04.306Z,41.35
2023-03-30T02:30:07.571Z,41.13
2023-03-30T02:40:25.732Z,41.16
2023-03-30T02:50:31.207Z,41.08
2023-03-30T03:00:42.338Z,41.14
2023-03-30T03:10:44.288Z,41.04
2023-03-30T03:20:45.836Z,41.16
2023-03-30T03:30:48.931Z,40.99
2023-03-30T03:40:51.286Z,40.94
2023-03-30T03:50:54.260Z,41.05
2023-03-30T04:00:59.909Z,41.01
2023-03-30T04:11:09.278Z,40.93
2023-03-30T04:21:13.064Z,40.87
2023-03-30T04:31:15.000Z,40.56
2023-03-30T04:41:16.472Z,40.18
2023-03-30T04:51:17.940Z,39.97
2023-03-30T05:01:19.347Z,39.75
2023-03-30T05:11:20.918Z,39.50
2023-03-30T05:21:22.455Z,39.54
2023-03-30T05:31:23.987Z,39.85
2023-03-30T05:41:27.796Z,39.94
2023-03-30T05:51:29.215Z,40.23
2023-03-30T06:01:30.853Z,40.23
2023-03-30T06:11:32.302Z,40.36
2023-03-30T06:21:33.845Z,40.48
2023-03-30T06:31:35.290Z,40.50
2023-03-30T06:41:36.711Z,40.29
2023-03-30T06:51:38.110Z,40.17
2023-03-30T07:01:39.523Z,40.14
2023-03-30T07:11:41.097Z,40.22
2023-03-30T07:21:42.620Z,40.19
2023-03-30T07:31:44.253Z,39.84
2023-03-30T07:41:45.714Z,39.96
2023-03-30T07:51:47.093Z,39.97
2023-03-30T08:01:54.427Z,40.14
2023-03-30T08:11:55.867Z,39.90
2023-03-30T08:21:57.395Z,39.86
2023-03-30T08:31:58.866Z,39.76
2023-03-30T08:42:26.708Z,39.65
2023-03-30T08:52:28.113Z,39.69
2023-03-30T09:02:35.607Z,39.69
2023-03-30T09:12:51.288Z,39.73
2023-03-30T09:22:53.749Z,39.58
2023-03-30T09:33:00.037Z,38.78
2023-03-30T09:43:12.820Z,39.34
2023-03-30T09:53:26.930Z,39.66
2023-03-30T10:03:29.077Z,40.02
2023-03-30T10:13:32.478Z,40.27
2023-03-30T10:23:41.842Z,40.29
2023-03-30T10:33:43.574Z,40.09
2023-03-30T10:43:45.191Z,40.18
2023-03-30T10:54:16.947Z,39.87
2023-03-30T11:04:39.084Z,39.78
2023-03-30T11:15:07.636Z,39.67
2023-03-30T11:25:21.198Z,40.14
2023-03-30T11:35:42.897Z,39.98
2023-03-30T11:45:55.216Z,39.72
2023-03-30T11:56:11.214Z,39.57
2023-03-30T12:06:33.360Z,39.48
2023-03-30T12:16:44.695Z,39.37
2023-03-30T12:26:51.836Z,39.03
2023-03-30T12:37:09.855Z,39.39
2023-03-30T12:47:30.199Z,39.77
2023-03-30T12:57:37.369Z,39.68
2023-03-30T13:07:38.784Z,39.51
2023-03-30T13:17:55.502Z,39.97
2023-03-30T13:27:57.889Z,39.95
2023-03-30T13:38:31.304Z,40.06
2023-03-30T13:49:03.864Z,40.20
2023-03-30T13:59:16.962Z,40.40
2023-03-30T14:09:25.928Z,40.49
2023-03-30T14:19:34.746Z,40.40
2023-03-30T14:29:44.229Z,40.43
2023-03-30T14:39:53.650Z,40.56
2023-03-30T14:49:57.185Z,40.43
2023-03-30T15:00:02.115Z,40.55
2023-03-30T15:10:03.796Z,40.54
2023-03-30T15:20:08.613Z,40.59
2023-03-30T15:30:26.842Z,40.48
2023-03-30T15:40:44.898Z,40.40
2023-03-30T15:50:48.988Z,40.33
2023-03-30T16:00:50.833Z,40.34
2023-03-30T16:10:52.387Z,40.48
2023-03-30T16:20:53.771Z,40.45
2023-03-30T16:30:55.272Z,40.37
2023-03-30T16:40:57.501Z,40.46
2023-03-30T16:50:59.114Z,40.75
2023-03-30T17:01:04.436Z,40.80
2023-03-30T17:11:07.992Z,40.94
2023-03-30T17:21:16.135Z,41.19
2023-03-30T17:31:19.572Z,41.32
2023-03-30T17:41:21.070Z,41.28
2023-03-30T17:51:22.523Z,41.46
2023-03-30T18:01:23.990Z,41.45
2023-03-30T18:11:26.463Z,41.55
2023-03-30T18:21:27.861Z,41.58
2023-03-30T18:31:29.268Z,41.55
2023-03-30T18:41:30.844Z,41.69
2023-03-30T18:51:32.231Z,41.61
2023-03-30T19:01:33.656Z,41.56
2023-03-30T19:11:35.289Z,41.82
2023-03-30T19:21:36.770Z,41.86
2023-03-30T19:31:38.387Z,41.96
2023-03-30T19:41:39.830Z,41.89
2023-03-30T19:51:41.544Z,41.88
2023-03-30T20:01:42.970Z,42.00
2023-03-30T20:11:44.555Z,42.08
2023-03-30T20:21:45.927Z,42.06
2023-03-30T20:31:47.549Z,41.94
2023-03-30T20:41:53.787Z,42.00
2023-03-30T20:51:55.801Z,41.98
2023-03-30T21:01:59.180Z,42.06
2023-03-30T21:12:00.715Z,42.17
2023-03-30T21:22:02.130Z,42.26
2023-03-30T21:32:03.538Z,42.20
2023-03-30T21:42:05.197Z,42.47
2023-03-30T21:52:06.679Z,42.52
2023-03-30T22:02:08.167Z,42.55
2023-03-30T22:12:09.667Z,42.71
2023-03-30T22:22:11.189Z,42.68
2023-03-30T22:32:13.955Z,42.68
2023-03-30T22:42:15.625Z,42.69
2023-03-30T22:52:17.237Z,42.81
2023-03-30T23:02:21.109Z,42.81
2023-03-30T23:12:22.652Z,42.89
2023-03-30T23:22:24.781Z,42.88
2023-03-30T23:32:27.230Z,42.82
2023-03-30T23:42:28.940Z,42.89
2023-03-30T23:52:30.904Z,42.93
